Dankov, Russia
Current Conditions -  °F | °C
As of 3:30 AM on Friday 19 Dec 2014 (Local Time) from UUOO Reporting Station
Light Fog Light Fog  
Wind Chill: 19°   Ceiling: Unl
Heat Index: 25°   Visibility: 2.8mi
Dew Point: 23°   Wind: 4mph
Humidity: 93%   Direction: NA
Pressure: 29.91"   Gusts: NA
Location:  53.25°N, 39.15°E
Report Text: UUOO 190030Z VRB02MPS 4600 MIFG BR SKC M04/M05 Q1013 TEMPO 0400FZFG RMK 30390145
Loading
Personal Weather Stations






























Interactive Weather Map New forecast layout! Learn more

10-Day Weather Forecast

Advertisements
Track Severe Weather on mobile